Time;durP1;ratioP1;P1;durP2;ratioP2;P2;SDS_P1;SDS_P2;PMS_P1;PMS_P2;Temp;Humidity;BMP_temperature;BMP_pressure;BME280_temperature;BME280_humidity;BME280_pressure;Samples;Min_cycle;Max_cycle;Signal;HPM_P1;HPM_P2
2023/10/20 00:00:18;;;;;;;8.13;5.23;;;;;;;13.41;100.00;98757.08;1457667;89;22308;-80
2023/10/20 00:02:45;;;;;;;8.83;5.23;;;;;;;13.46;100.00;98748.46;1457281;89;21377;-79
2023/10/20 00:05:11;;;;;;;12.27;5.87;;;;;;;13.50;100.00;98743.05;1454209;88;21455;-80
2023/10/20 00:07:38;;;;;;;7.50;5.60;;;;;;;13.54;100.00;98751.72;1433448;89;21376;-79
2023/10/20 00:10:09;;;;;;;15.33;6.43;;;;;;;13.56;100.00;98746.73;1458281;89;21464;-79
2023/10/20 00:12:34;;;;;;;17.93;6.53;;;;;;;13.57;100.00;98753.15;1455765;89;22341;-79
2023/10/20 00:15:01;;;;;;;10.27;5.97;;;;;;;13.58;100.00;98745.98;1454451;89;21584;-79
2023/10/20 00:17:27;;;;;;;10.63;6.17;;;;;;;13.58;100.00;98746.83;1456113;89;21543;-79
2023/10/20 00:19:53;;;;;;;11.67;5.87;;;;;;;13.59;100.00;98745.79;1458893;89;22331;-79
2023/10/20 00:22:20;;;;;;;8.33;4.90;;;;;;;13.63;100.00;98738.21;1447935;89;22442;-78
2023/10/20 00:24:46;;;;;;;9.37;5.47;;;;;;;13.66;100.00;98730.63;1455317;88;21540;-79
2023/10/20 00:27:16;;;;;;;10.17;6.17;;;;;;;13.70;100.00;98728.39;1454973;89;22470;-79
2023/10/20 00:29:42;;;;;;;15.90;6.90;;;;;;;13.73;100.00;98726.13;1445068;89;22367;-80
2023/10/20 00:32:10;;;;;;;7.97;5.77;;;;;;;13.74;100.00;98730.92;1455547;89;21487;-80
2023/10/20 00:34:42;;;;;;;9.43;5.00;;;;;;;13.78;100.00;98726.80;1445943;89;21383;-79
2023/10/20 00:37:06;;;;;;;8.93;5.33;;;;;;;13.82;100.00;98724.05;1467014;89;21523;-80
2023/10/20 00:39:34;;;;;;;13.23;6.37;;;;;;;13.84;100.00;98722.00;1455266;89;21546;-80
2023/10/20 00:42:01;;;;;;;14.57;6.37;;;;;;;13.87;100.00;98724.24;1444633;89;21532;-80
2023/10/20 00:44:27;;;;;;;13.43;6.27;;;;;;;13.89;100.00;98726.67;1448834;88;21421;-80
2023/10/20 00:46:53;;;;;;;16.07;6.07;;;;;;;13.91;100.00;98724.63;1459586;89;22588;-80
2023/10/20 00:49:20;;;;;;;9.90;6.10;;;;;;;13.87;100.00;98723.43;1449830;90;21465;-79
2023/10/20 00:51:47;;;;;;;11.10;5.60;;;;;;;13.85;100.00;98716.17;1448055;90;21547;-80
2023/10/20 00:54:15;;;;;;;13.87;6.33;;;;;;;13.84;100.00;98725.16;1450634;89;21363;-80
2023/10/20 00:56:41;;;;;;;9.43;5.27;;;;;;;13.82;100.00;98722.72;1455562;89;21532;-80
2023/10/20 00:59:09;;;;;;;23.03;6.07;;;;;;;13.83;100.00;98723.02;1457407;90;21377;-80
2023/10/20 01:01:36;;;;;;;14.97;6.30;;;;;;;13.81;100.00;98719.77;1449916;90;21488;-80
2023/10/20 01:04:03;;;;;;;8.30;5.57;;;;;;;13.82;100.00;98726.70;1453761;90;21377;-80
2023/10/20 01:06:29;;;;;;;11.80;8.53;;;;;;;13.82;100.00;98729.37;1455611;90;22396;-80
2023/10/20 01:08:56;;;;;;;12.80;9.87;;;;;;;13.64;100.00;98737.20;1450052;90;21340;-79
2023/10/20 01:11:23;;;;;;;12.93;9.20;;;;;;;13.39;100.00;98732.53;1456926;90;21502;-78
2023/10/20 01:13:50;;;;;;;18.03;11.13;;;;;;;13.13;100.00;98727.23;1452345;89;22338;-79
2023/10/20 01:16:18;;;;;;;15.50;11.10;;;;;;;12.95;100.00;98731.33;1460291;89;21554;-79
2023/10/20 01:18:44;;;;;;;13.70;10.80;;;;;;;12.76;100.00;98729.47;1453190;90;22279;-79
2023/10/20 01:21:11;;;;;;;15.90;11.60;;;;;;;12.56;100.00;98736.88;1453063;89;21391;-81
2023/10/20 01:23:38;;;;;;;15.27;10.60;;;;;;;12.37;100.00;98737.66;1457266;89;21443;-80
2023/10/20 01:26:04;;;;;;;16.87;11.07;;;;;;;12.20;100.00;98737.22;1453185;90;21518;-82
2023/10/20 01:28:31;;;;;;;15.47;11.17;;;;;;;12.08;100.00;98734.81;1451032;90;22843;-81
2023/10/20 01:30:57;;;;;;;16.37;11.57;;;;;;;11.94;100.00;98735.29;1443678;90;21450;-79
2023/10/20 01:33:23;;;;;;;16.87;10.90;;;;;;;11.84;100.00;98733.47;1445775;90;21406;-79
2023/10/20 01:35:50;;;;;;;19.47;10.70;;;;;;;11.83;100.00;98733.16;1445523;90;21332;-79
2023/10/20 01:38:16;;;;;;;19.80;11.50;;;;;;;11.78;100.00;98728.44;1455658;90;22361;-78
2023/10/20 01:40:42;;;;;;;17.43;11.23;;;;;;;11.74;100.00;98724.05;1456725;89;21325;-81
2023/10/20 01:43:08;;;;;;;19.00;11.43;;;;;;;11.72;100.00;98719.44;1454619;89;21406;-78
2023/10/20 01:45:36;;;;;;;16.83;11.60;;;;;;;11.73;100.00;98719.75;1441531;90;21376;-79
2023/10/20 01:48:02;;;;;;;21.97;11.07;;;;;;;11.73;100.00;98711.80;1450179;88;21436;-79
2023/10/20 01:50:29;;;;;;;18.33;10.00;;;;;;;11.77;100.00;98713.56;1445997;90;21384;-78
2023/10/20 01:52:55;;;;;;;16.60;10.03;;;;;;;11.80;100.00;98713.69;1432957;91;21630;-80
2023/10/20 01:55:21;;;;;;;16.60;10.33;;;;;;;11.83;100.00;98703.50;1452916;90;21363;-78
2023/10/20 01:57:47;;;;;;;12.97;10.20;;;;;;;11.85;100.00;98697.50;1456756;90;21503;-78
2023/10/20 02:00:17;;;;;;;19.57;11.23;;;;;;;11.86;100.00;98689.06;1448009;89;21414;-79
2023/10/20 02:02:43;;;;;;;18.73;10.97;;;;;;;11.88;100.00;98686.53;1454854;89;21509;-79
2023/10/20 02:05:10;;;;;;;24.13;10.93;;;;;;;11.92;100.00;98681.13;1453476;90;22405;-80
2023/10/20 02:07:38;;;;;;;12.77;9.43;;;;;;;11.99;100.00;98677.16;1455243;90;21363;-79
2023/10/20 02:10:06;;;;;;;14.63;10.77;;;;;;;12.05;100.00;98669.73;1452429;90;21377;-78
2023/10/20 02:12:33;;;;;;;15.33;8.40;;;;;;;12.10;100.00;98661.19;1449115;89;21377;-79
2023/10/20 02:15:00;;;;;;;15.70;8.40;;;;;;;12.15;100.00;98660.90;1455627;90;21370;-78
2023/10/20 02:17:26;;;;;;;12.30;7.63;;;;;;;12.24;100.00;98651.44;1455519;89;22530;-79
2023/10/20 02:19:52;;;;;;;14.27;7.47;;;;;;;12.33;100.00;98667.46;1454878;89;21450;-78
2023/10/20 02:22:18;;;;;;;19.13;6.10;;;;;;;12.42;100.00;98662.27;1450204;89;21499;-78
2023/10/20 02:24:45;;;;;;;8.00;5.80;;;;;;;12.53;100.00;98669.63;1455560;90;21503;-78
2023/10/20 02:27:11;;;;;;;16.63;7.17;;;;;;;12.63;100.00;98670.56;1455278;89;21510;-78
2023/10/20 02:29:37;;;;;;;15.10;7.20;;;;;;;12.75;100.00;98672.09;1449859;89;22301;-78
2023/10/20 02:32:04;;;;;;;8.33;5.63;;;;;;;12.86;100.00;98650.25;1450924;89;22492;-79
2023/10/20 02:34:32;;;;;;;14.27;6.70;;;;;;;12.99;100.00;98651.55;1452363;90;21480;-79
2023/10/20 02:36:58;;;;;;;11.20;5.30;;;;;;;13.09;100.00;98638.67;1446209;90;21413;-78
2023/10/20 02:39:24;;;;;;;10.50;5.93;;;;;;;13.17;100.00;98640.27;1461023;89;21519;-80
2023/10/20 02:41:50;;;;;;;11.63;5.67;;;;;;;13.23;100.00;98642.61;1457145;89;21547;-80
2023/10/20 02:44:17;;;;;;;14.30;5.50;;;;;;;13.29;100.00;98654.59;1451154;90;21399;-80
2023/10/20 02:46:45;;;;;;;9.20;5.13;;;;;;;13.34;100.00;98647.31;1455628;89;21499;-81
2023/10/20 02:49:12;;;;;;;9.23;5.43;;;;;;;13.38;100.00;98644.56;1457023;88;21443;-80
2023/10/20 02:51:38;;;;;;;13.83;6.07;;;;;;;13.42;100.00;98639.12;1444641;90;21369;-80
2023/10/20 02:54:04;;;;;;;9.03;5.90;;;;;;;13.45;100.00;98633.38;1457131;89;21542;-81
2023/10/20 02:56:30;;;;;;;9.97;5.77;;;;;;;13.49;100.00;98636.43;1455924;89;22381;-80
2023/10/20 02:58:56;;;;;;;12.77;6.13;;;;;;;13.52;100.00;98626.22;1445498;90;22455;-80
2023/10/20 03:01:23;;;;;;;10.23;5.53;;;;;;;13.55;100.00;98619.64;1452144;90;22003;-80
2023/10/20 03:03:49;;;;;;;12.97;6.70;;;;;;;13.58;100.00;98611.76;1453690;89;21498;-80
2023/10/20 03:06:16;;;;;;;10.90;5.57;;;;;;;13.61;100.00;98617.98;1456091;90;21561;-81
2023/10/20 03:08:42;;;;;;;9.43;5.90;;;;;;;13.63;100.00;98625.23;1449923;90;21499;-81
2023/10/20 03:11:09;;;;;;;15.77;6.80;;;;;;;13.64;100.00;98624.23;1443035;90;21406;-79
2023/10/20 03:13:35;;;;;;;13.00;6.30;;;;;;;13.66;100.00;98623.48;1450454;90;21576;-80
2023/10/20 03:16:02;;;;;;;19.03;5.90;;;;;;;13.67;100.00;98615.83;1449990;89;22257;-80
2023/10/20 03:18:28;;;;;;;17.10;6.13;;;;;;;13.70;100.00;98620.20;1454484;89;21566;-80
2023/10/20 03:21:00;;;;;;;15.67;5.73;;;;;;;13.72;100.00;98614.66;1451068;89;21384;-79
2023/10/20 03:23:27;;;;;;;12.57;6.50;;;;;;;13.75;100.00;98622.20;1449472;89;21458;-80
2023/10/20 03:25:53;;;;;;;13.87;6.30;;;;;;;13.78;100.00;98620.45;1452302;89;22517;-79
2023/10/20 03:28:19;;;;;;;12.37;5.67;;;;;;;13.80;100.00;98629.56;1446536;89;21873;-80
2023/10/20 03:30:46;;;;;;;10.73;5.03;;;;;;;13.81;100.00;98624.05;1450625;89;21524;-79
2023/10/20 03:33:15;;;;;;;11.13;5.10;;;;;;;13.83;100.00;98611.33;1462980;90;22367;-80
2023/10/20 03:35:42;;;;;;;14.20;5.67;;;;;;;13.85;100.00;98605.81;1453546;89;21491;-80
2023/10/20 03:38:09;;;;;;;21.33;5.90;;;;;;;13.88;100.00;98601.40;1457485;90;23131;-80
2023/10/20 03:40:37;;;;;;;12.73;6.17;;;;;;;13.90;100.00;98601.48;1457175;89;21562;-80
2023/10/20 03:43:05;;;;;;;10.67;5.47;;;;;;;13.93;100.00;98610.37;1450398;89;21457;-80
2023/10/20 03:45:40;;;;;;;12.97;5.47;;;;;;;13.96;100.00;98607.80;1458040;90;22515;-80
2023/10/20 03:48:03;;;;;;;10.60;5.87;;;;;;;14.00;100.00;98608.47;1448680;88;22316;-80
2023/10/20 03:50:33;;;;;;;11.60;4.80;;;;;;;14.03;100.00;98600.58;1462199;89;21391;-80
2023/10/20 03:52:58;;;;;;;9.83;6.03;;;;;;;14.07;100.00;98603.63;1457806;89;21761;-80
2023/10/20 03:55:24;;;;;;;10.40;6.40;;;;;;;14.10;100.00;98603.22;1458347;89;22366;-80
2023/10/20 03:57:52;;;;;;;9.90;5.07;;;;;;;14.13;100.00;98606.26;1459942;89;21377;-80
2023/10/20 04:00:28;;;;;;;12.23;5.50;;;;;;;14.17;100.00;98605.31;1454216;88;21398;-79
2023/10/20 04:02:47;;;;;;;14.40;5.97;;;;;;;14.20;100.00;98606.20;1460152;89;21501;-80
2023/10/20 04:05:19;;;;;;;10.87;5.67;;;;;;;14.21;100.00;98607.83;1441287;89;21369;-80
2023/10/20 04:07:42;;;;;;;11.73;6.73;;;;;;;14.25;100.00;98604.23;1454651;89;22536;-79
2023/10/20 04:10:09;;;;;;;16.03;6.70;;;;;;;14.27;100.00;98607.48;1464566;89;21472;-81
2023/10/20 04:12:41;;;;;;;14.43;6.30;;;;;;;14.29;100.00;98615.55;1458126;89;22337;-81
2023/10/20 04:15:14;;;;;;;19.80;7.80;;;;;;;14.28;100.00;98613.13;1459314;89;21353;-81
2023/10/20 04:17:38;;;;;;;13.93;5.23;;;;;;;14.27;100.00;98607.48;1445541;89;21450;-80
2023/10/20 04:20:15;;;;;;;12.40;5.83;;;;;;;14.27;100.00;98612.31;1460704;89;21405;-79
2023/10/20 04:22:35;;;;;;;;;;;;;;;14.27;100.00;98605.66;1460615;89;22357;-79
2023/10/20 04:25:02;;;;;;;18.87;7.03;;;;;;;14.27;100.00;98599.50;1456777;89;20284;-80
2023/10/20 04:27:45;;;;;;;15.50;6.30;;;;;;;14.28;100.00;98595.30;1460571;89;21318;-80
2023/10/20 04:43:39;;;;;;;13.47;5.10;;;;;;;14.30;100.00;98573.30;1461716;89;22271;-79
2023/10/20 04:54:10;;;;;;;10.03;5.03;;;;;;;14.38;100.00;98569.01;1456730;89;21421;-80
2023/10/20 04:56:38;;;;;;;9.80;5.40;;;;;;;14.40;100.00;98570.94;1457166;89;21443;-80
2023/10/20 04:59:05;;;;;;;14.97;5.27;;;;;;;14.44;100.00;98573.48;1433168;89;21525;-80
2023/10/20 05:01:49;;;;;;;15.67;6.50;;;;;;;14.49;100.00;98572.81;1453117;89;21466;-79
2023/10/20 05:04:22;;;;;;;16.97;5.73;;;;;;;14.48;100.00;98560.55;1461071;88;21575;-79
2023/10/20 05:06:44;;;;;;;11.30;6.70;;;;;;;14.50;100.00;98567.81;1454707;89;21494;-80
2023/10/20 05:09:25;;;;;;;12.73;6.00;;;;;;;14.51;100.00;98568.62;1464743;89;21567;-79
2023/10/20 05:11:54;;;;;;;19.95;5.37;;;;;;;14.50;100.00;98574.46;1458706;89;22329;-79
2023/10/20 05:14:21;;;;;;;15.33;4.77;;;;;;;14.53;100.00;98581.20;1456204;89;22180;-79
2023/10/20 05:16:47;;;;;;;12.83;4.73;;;;;;;14.55;100.00;98581.81;1452009;89;21281;-79
2023/10/20 05:19:13;;;;;;;11.20;5.83;;;;;;;14.58;100.00;98586.70;1451382;89;21405;-79
2023/10/20 05:21:39;;;;;;;8.00;4.60;;;;;;;14.63;100.00;98594.84;1455042;89;22226;-79
2023/10/20 05:24:06;;;;;;;11.00;5.90;;;;;;;14.68;100.00;98586.22;1446825;89;21546;-80
2023/10/20 05:26:32;;;;;;;17.77;5.87;;;;;;;14.71;100.00;98586.59;1457820;89;21428;-80
2023/10/20 05:29:00;;;;;;;11.60;4.83;;;;;;;14.74;100.00;98584.00;1456402;89;21598;-79
2023/10/20 05:31:29;;;;;;;11.43;5.10;;;;;;;14.80;100.00;98591.11;1383438;89;21266;-80
2023/10/20 05:33:55;;;;;;;14.97;6.60;;;;;;;14.83;100.00;98591.48;1380879;88;21303;-78
2023/10/20 05:36:22;;;;;;;11.93;4.97;;;;;;;14.86;100.00;98591.04;1541570;89;21141;-79
2023/10/20 05:38:48;;;;;;;11.97;6.00;;;;;;;14.92;100.00;98595.20;1384788;89;21428;-79
2023/10/20 05:41:14;;;;;;;20.90;7.23;;;;;;;14.94;100.00;98595.28;1384795;89;21223;-80
2023/10/20 05:43:41;;;;;;;11.67;5.80;;;;;;;14.96;100.00;98602.54;1384493;89;21317;-80
2023/10/20 05:46:14;;;;;;;11.27;6.17;;;;;;;15.00;100.00;98601.58;1371958;90;21267;-80
2023/10/20 05:48:41;;;;;;;12.77;5.23;;;;;;;15.03;100.00;98613.12;1520327;88;21252;-79
2023/10/20 05:51:07;;;;;;;11.53;5.30;;;;;;;15.07;100.00;98605.78;1535383;90;21297;-79
2023/10/20 05:53:33;;;;;;;15.47;5.20;;;;;;;15.10;100.00;98611.19;1379328;90;21458;-80
2023/10/20 05:56:00;;;;;;;10.27;4.40;;;;;;;15.15;100.00;98615.86;1379571;90;21245;-80
2023/10/20 05:58:26;;;;;;;14.87;5.00;;;;;;;15.21;100.00;98613.13;1379706;90;21289;-80
2023/10/20 06:00:53;;;;;;;7.40;5.20;;;;;;;15.28;100.00;98623.73;1378858;90;21429;-80
2023/10/20 06:03:19;;;;;;;12.67;4.67;;;;;;;15.33;100.00;98627.85;1527612;90;21201;-79
2023/10/20 06:05:45;;;;;;;9.03;5.07;;;;;;;15.38;100.00;98616.53;1522998;90;21451;-80
2023/10/20 06:08:11;;;;;;;11.47;5.30;;;;;;;15.43;100.00;98619.36;1373221;90;21259;-77
2023/10/20 06:10:37;;;;;;;15.80;6.10;;;;;;;15.46;100.00;98615.72;1379602;90;21385;-80
2023/10/20 06:13:04;;;;;;;11.70;5.20;;;;;;;15.52;100.00;98622.01;1458242;89;21296;-80
2023/10/20 06:15:31;;;;;;;10.33;5.03;;;;;;;15.56;100.00;98617.84;1384988;89;21568;-79
2023/10/20 06:17:58;;;;;;;16.53;5.87;;;;;;;15.64;100.00;98614.87;1378827;90;21266;-80
2023/10/20 06:20:24;;;;;;;10.53;5.07;;;;;;;15.72;100.00;98624.46;1379485;90;21244;-80
2023/10/20 06:22:50;;;;;;;12.10;6.47;;;;;;;15.78;100.00;98621.70;1379903;89;21237;-79
2023/10/20 06:25:17;;;;;;;15.93;5.70;;;;;;;15.85;100.00;98620.80;1379096;90;21421;-79
2023/10/20 06:27:45;;;;;;;16.57;5.63;;;;;;;15.90;100.00;98627.61;1379797;89;21392;-79
2023/10/20 06:30:15;;;;;;;17.00;6.70;;;;;;;15.95;100.00;98629.09;1383139;89;21236;-79
2023/10/20 06:32:56;;;;;;;19.37;7.80;;;;;;;15.98;100.00;98631.30;1378814;90;21549;-79
2023/10/20 06:35:13;;;;;;;15.37;5.80;;;;;;;16.05;100.00;98625.86;1526330;89;21455;-80
2023/10/20 06:37:57;;;;;;;13.93;6.63;;;;;;;16.09;100.00;98619.86;1384581;89;21281;-80
2023/10/20 06:40:20;;;;;;;14.50;6.07;;;;;;;16.15;100.00;98622.95;1378607;90;21274;-81
2023/10/20 06:42:46;;;;;;;12.03;5.80;;;;;;;16.21;100.00;98616.69;1378756;90;21237;-79
2023/10/20 06:45:13;;;;;;;13.40;4.87;;;;;;;16.31;100.00;98616.66;1426587;89;22338;-79
2023/10/20 06:47:40;;;;;;;13.40;4.17;;;;;;;16.37;100.00;98609.89;1451023;90;22418;-79
2023/10/20 06:50:08;;;;;;;15.93;5.30;;;;;;;16.47;100.00;98618.67;1460075;88;21591;-81
2023/10/20 06:52:36;;;;;;;17.57;5.63;;;;;;;16.53;100.00;98611.06;1442121;89;21612;-80
2023/10/20 06:55:07;;;;;;;13.28;5.92;;;;;;;16.58;100.00;98614.39;1455614;89;21575;-81
2023/10/20 06:57:34;;;;;;;17.17;6.05;;;;;;;16.63;100.00;98611.33;1457925;89;21436;-80
2023/10/20 07:00:00;;;;;;;14.17;5.57;;;;;;;16.66;100.00;98616.20;1461150;89;22197;-82
2023/10/20 07:02:27;;;;;;;12.77;6.00;;;;;;;16.73;100.00;98621.95;1453882;89;21532;-83
2023/10/20 07:04:54;;;;;;;14.63;5.17;;;;;;;16.77;100.00;98619.94;1443936;89;21413;-82
2023/10/20 07:07:20;;;;;;;11.35;4.95;;;;;;;16.81;100.00;98621.64;1449612;89;21377;-82
2023/10/20 07:09:46;;;;;;;17.40;5.17;;;;;;;16.87;100.00;98620.71;1456346;89;21534;-81
2023/10/20 07:12:15;;;;;;;26.07;6.00;;;;;;;16.95;100.00;98616.36;1458491;89;21399;-82
2023/10/20 07:14:43;;;;;;;12.63;5.00;;;;;;;17.01;100.00;98613.28;1455872;89;22394;-83
2023/10/20 07:17:09;;;;;;;13.20;5.03;;;;;;;17.08;100.00;98603.27;1466454;89;21406;-82
2023/10/20 07:19:36;;;;;;;10.50;4.67;;;;;;;17.12;100.00;98601.23;1457786;89;21361;-82
2023/10/20 07:22:03;;;;;;;11.83;5.75;;;;;;;17.21;100.00;98607.56;1455138;89;21554;-80
2023/10/20 07:24:30;;;;;;;15.00;5.10;;;;;;;17.25;100.00;98608.70;1458463;89;22271;-83
2023/10/20 07:26:57;;;;;;;9.13;3.85;;;;;;;17.27;100.00;98611.97;1461209;88;21384;-82
2023/10/20 07:29:23;;;;;;;19.57;4.95;;;;;;;17.28;100.00;98602.89;1456709;89;22470;-82
2023/10/20 07:31:49;;;;;;;15.10;4.65;;;;;;;17.30;100.00;98606.95;1461280;89;21273;-81
2023/10/20 07:34:16;;;;;;;10.98;4.92;;;;;;;17.31;100.00;98605.09;1464321;88;21494;-82
2023/10/20 07:36:43;;;;;;;17.05;5.05;;;;;;;17.31;100.00;98599.75;1462235;89;22374;-81
2023/10/20 07:39:14;;;;;;;12.15;4.53;;;;;;;17.34;100.00;98605.95;1460354;89;21383;-80
2023/10/20 07:41:38;;;;;;;14.30;5.47;;;;;;;17.36;100.00;98599.86;1456264;89;21598;-82
2023/10/20 07:44:04;;;;;;;21.82;5.58;;;;;;;17.42;100.00;98607.45;1455166;89;21577;-80
2023/10/20 07:46:31;;;;;;;15.03;5.30;;;;;;;17.46;100.00;98600.05;1463937;89;22383;-83
2023/10/20 07:48:57;;;;;;;7.80;4.28;;;;;;;17.51;100.00;98599.34;1452177;89;21977;-84
2023/10/20 07:51:24;;;;;;;17.57;4.47;;;;;;;17.56;100.00;98610.96;1461739;88;21606;-83
2023/10/20 07:53:51;;;;;;;17.15;4.92;;;;;;;17.63;100.00;98610.01;1456917;89;21421;-80
2023/10/20 07:56:17;;;;;;;13.93;5.70;;;;;;;17.71;100.00;98602.95;1459698;89;21443;-82
2023/10/20 07:58:43;;;;;;;26.52;6.45;;;;;;;17.77;100.00;98597.45;1464985;89;21392;-82
2023/10/20 08:01:09;;;;;;;17.70;5.50;;;;;;;17.91;100.00;98594.00;1448995;89;21310;-83
2023/10/20 08:03:35;;;;;;;23.47;5.47;;;;;;;17.91;100.00;98594.00;1461553;88;21532;-82
2023/10/20 08:06:03;;;;;;;16.27;5.92;;;;;;;17.96;100.00;98600.78;1463442;89;22434;-83
2023/10/20 08:08:29;;;;;;;11.60;4.30;;;;;;;18.01;100.00;98604.90;1457987;89;21376;-82
2023/10/20 08:10:56;;;;;;;11.53;4.67;;;;;;;18.07;100.00;98603.63;1464492;89;21384;-83
2023/10/20 08:13:22;;;;;;;14.07;4.95;;;;;;;18.09;100.00;98609.03;1454016;89;22168;-82
2023/10/20 08:15:48;;;;;;;21.33;5.17;;;;;;;18.13;100.00;98610.72;1453005;89;21832;-83
2023/10/20 08:18:14;;;;;;;17.15;5.05;;;;;;;18.21;100.00;98607.13;1459273;89;21605;-81
2023/10/20 08:20:41;;;;;;;18.42;4.35;;;;;;;18.21;100.00;98607.13;1459298;89;21422;-82
2023/10/20 08:23:08;;;;;;;19.00;5.12;;;;;;;18.26;100.00;98611.20;1459437;88;22411;-82
2023/10/20 08:25:38;;;;;;;13.13;5.10;;;;;;;18.30;100.00;98606.20;1462079;89;21436;-81
2023/10/20 08:28:05;;;;;;;14.13;4.62;;;;;;;18.33;100.00;98601.70;1460502;89;21579;-83
2023/10/20 08:30:31;;;;;;;16.48;4.75;;;;;;;18.36;100.00;98601.21;1463250;89;21354;-83
2023/10/20 08:32:57;;;;;;;7.83;3.90;;;;;;;18.42;100.00;98603.45;1459331;89;21607;-83
2023/10/20 08:35:23;;;;;;;11.48;4.65;;;;;;;18.45;100.00;98600.28;1462374;89;21421;-82
2023/10/20 08:37:50;;;;;;;15.50;4.45;;;;;;;18.51;100.00;98602.52;1461493;89;21510;-81
2023/10/20 08:40:16;;;;;;;15.72;4.37;;;;;;;18.56;100.00;98592.70;1454160;89;21391;-82
2023/10/20 08:42:43;;;;;;;15.18;5.00;;;;;;;18.63;100.00;98601.36;1459708;89;21443;-83
2023/10/20 08:45:12;;;;;;;34.30;8.15;;;;;;;18.70;100.00;98598.52;1447192;89;21391;-82
2023/10/20 08:47:42;;;;;;;25.00;10.80;;;;;;;18.72;100.00;98601.23;1452857;89;21377;-83
2023/10/20 08:50:13;;;;;;;38.23;16.73;;;;;;;18.74;100.00;98607.73;1450118;89;21635;-82
2023/10/20 08:52:40;;;;;;;38.95;17.77;;;;;;;18.74;100.00;98614.43;1462149;89;22256;-83
2023/10/20 08:55:07;;;;;;;50.35;21.73;;;;;;;18.73;100.00;98607.43;1461596;89;21345;-81
2023/10/20 08:57:34;;;;;;;60.43;22.02;;;;;;;18.74;100.00;98613.09;1463991;88;22271;-80
2023/10/20 09:00:00;;;;;;;50.20;20.02;;;;;;;18.76;100.00;98604.79;1459131;88;21333;-82
2023/10/20 09:02:38;;;;;;;27.48;11.45;;;;;;;18.77;100.00;98604.56;1459519;89;21421;-83
2023/10/20 09:05:06;;;;;;;20.12;6.45;;;;;;;18.82;100.00;98597.14;1458280;88;21564;-82
2023/10/20 09:07:33;;;;;;;11.93;5.53;;;;;;;18.90;100.00;98614.95;1461291;88;21406;-84
2023/10/20 09:10:00;;;;;;;18.57;6.42;;;;;;;18.93;100.00;98613.12;1462373;88;22256;-83
2023/10/20 09:12:31;;;;;;;20.37;4.10;;;;;;;19.00;100.00;98611.59;1458382;89;21369;-83
2023/10/20 09:14:57;;;;;;;19.37;5.65;;;;;;;19.05;100.00;98616.23;1462479;88;22356;-82
2023/10/20 09:17:24;;;;;;;19.10;5.92;;;;;;;19.09;100.00;98621.37;1460686;88;21406;-81
2023/10/20 09:19:50;;;;;;;19.85;5.47;;;;;;;19.11;100.00;98626.77;1452005;89;21516;-82
2023/10/20 09:22:29;;;;;;;12.00;5.42;;;;;;;19.13;100.00;98625.16;1459831;88;21501;-80
2023/10/20 09:24:56;;;;;;;12.45;4.83;;;;;;;19.14;100.00;98621.45;1461522;89;21422;-82
2023/10/20 09:27:23;;;;;;;17.80;5.22;;;;;;;19.13;100.00;98622.48;1450902;89;21369;-81
2023/10/20 09:29:51;;;;;;;16.57;4.90;;;;;;;19.18;100.00;98623.91;1457075;89;21361;-82
2023/10/20 09:32:18;;;;;;;13.80;5.10;;;;;;;19.23;100.00;98617.80;1468154;88;21458;-82
2023/10/20 09:34:44;;;;;;;15.15;4.67;;;;;;;19.27;100.00;98614.36;1459359;88;21527;-83
2023/10/20 09:37:14;;;;;;;24.57;6.35;;;;;;;19.28;100.00;98619.22;1462630;88;21445;-81
2023/10/20 09:39:44;;;;;;;10.55;4.00;;;;;;;19.30;100.00;98615.74;1467193;88;21663;-81
2023/10/20 09:42:15;;;;;;;27.25;7.62;;;;;;;19.29;100.00;98617.62;1465930;89;21354;-81
2023/10/20 09:44:50;;;;;;;15.50;4.87;;;;;;;19.29;100.00;98615.47;1461798;88;21390;-81
2023/10/20 09:47:27;;;;;;;16.12;4.55;;;;;;;19.30;100.00;98604.48;1462040;88;21384;-83
2023/10/20 09:49:55;;;;;;;19.87;5.75;;;;;;;19.36;100.00;98604.84;1458061;89;22411;-84
2023/10/20 09:52:21;;;;;;;26.73;4.62;;;;;;;19.51;100.00;98596.17;1462806;88;22687;-83
2023/10/20 09:54:50;;;;;;;17.17;5.22;;;;;;;19.51;100.00;98596.17;1460108;88;21406;-82
2023/10/20 09:57:19;;;;;;;13.30;5.03;;;;;;;19.63;100.00;98586.64;1463362;89;21507;-82
2023/10/20 09:59:53;;;;;;;13.80;4.40;;;;;;;19.75;100.00;98584.66;1449123;88;21355;-82
2023/10/20 10:02:27;;;;;;;15.13;5.08;;;;;;;19.86;100.00;98577.53;1461330;89;21399;-83
2023/10/20 10:04:54;;;;;;;28.12;6.90;;;;;;;20.01;100.00;98573.64;1458853;88;22197;-81
2023/10/20 10:07:35;;;;;;;10.98;6.08;;;;;;;20.26;100.00;98570.38;1458311;89;21522;-82
2023/10/20 10:10:02;;;;;;;20.15;6.40;;;;;;;20.69;100.00;98563.22;1457679;89;21498;-83
2023/10/20 10:12:29;;;;;;;15.43;4.62;;;;;;;21.43;100.00;98566.83;1458025;89;21406;-82
2023/10/20 10:15:07;;;;;;;20.95;5.22;;;;;;;22.16;100.00;98567.28;1463870;88;21524;-83
2023/10/20 10:17:33;;;;;;;21.60;5.55;;;;;;;22.87;100.00;98558.34;1456657;89;21649;-81
2023/10/20 10:20:01;;;;;;;20.80;6.58;;;;;;;23.46;100.00;98562.23;1455707;89;21356;-84
2023/10/20 10:22:30;;;;;;;17.07;5.22;;;;;;;23.84;100.00;98560.14;1462143;88;21376;-85
2023/10/20 10:24:59;;;;;;;17.32;5.72;;;;;;;24.00;100.00;98558.70;1459882;88;21517;-83
2023/10/20 10:27:28;;;;;;;15.23;5.45;;;;;;;24.17;100.00;98567.23;1461697;89;22433;-82
2023/10/20 10:30:30;;;;;;;11.57;3.95;;;;;;;24.16;100.00;98563.44;1461798;89;21489;-83
2023/10/20 10:32:31;;;;;;;14.55;4.65;;;;;;;24.12;100.00;98555.09;1453707;89;21406;-83
2023/10/20 10:34:59;;;;;;;22.90;5.53;;;;;;;24.15;100.00;98547.77;1464253;89;21523;-85
2023/10/20 10:37:30;;;;;;;20.95;4.33;;;;;;;24.13;100.00;98538.33;1459660;89;21376;-84
2023/10/20 10:40:15;;;;;;;19.32;5.83;;;;;;;24.12;100.00;98536.73;1462681;89;21449;-82
2023/10/20 10:42:49;;;;;;;19.73;4.60;;;;;;;24.18;100.00;98536.40;1457593;89;21523;-84
2023/10/20 10:45:30;;;;;;;22.60;4.45;;;;;;;24.44;100.00;98537.02;1458889;88;21493;-83
2023/10/20 10:48:18;;;;;;;20.90;4.90;;;;;;;24.65;82.57;98541.67;1464521;88;21509;-84
2023/10/20 10:50:46;;;;;;;13.40;4.58;;;;;;;24.66;76.83;98546.02;1454451;88;22402;-83
2023/10/20 10:53:14;;;;;;;14.68;4.33;;;;;;;24.50;77.84;98535.88;1466884;89;21479;-84
2023/10/20 10:55:42;;;;;;;19.85;5.58;;;;;;;24.25;77.90;98541.47;1455213;88;22227;-81
2023/10/20 10:58:13;;;;;;;12.30;3.85;;;;;;;23.83;72.32;98549.62;1455754;89;21506;-83
2023/10/20 11:00:45;;;;;;;17.20;5.20;;;;;;;23.60;74.42;98539.73;1450279;89;22293;-85
2023/10/20 11:03:13;;;;;;;29.30;4.92;;;;;;;23.32;67.65;98539.88;1460587;89;22368;-85
2023/10/20 11:05:40;;;;;;;15.68;4.62;;;;;;;23.02;65.49;98534.58;1459140;89;21759;-86
2023/10/20 11:12:14;;;;;;;16.45;4.10;;;;;;;22.65;66.40;98526.31;1541608;89;21185;-80
2023/10/20 11:14:40;;;;;;;21.33;4.55;;;;;;;22.51;62.70;98533.60;1532662;89;21258;-83
2023/10/20 11:17:06;;;;;;;20.02;5.97;;;;;;;22.53;62.62;98524.71;1526915;89;21346;-83
2023/10/20 11:19:33;;;;;;;13.58;4.22;;;;;;;22.56;62.64;98505.00;1426710;89;22360;-83
2023/10/20 11:21:59;;;;;;;15.15;5.00;;;;;;;22.57;63.22;98503.41;1458626;88;22863;-82
2023/10/20 11:24:34;;;;;;;19.50;4.53;;;;;;;22.56;62.79;98499.62;1456306;89;21398;-83
2023/10/20 11:27:07;;;;;;;20.77;4.65;;;;;;;22.56;62.78;98496.92;1461005;89;22308;-83
2023/10/20 11:29:37;;;;;;;27.60;4.58;;;;;;;22.68;62.57;98504.20;1459032;89;21450;-80
2023/10/20 11:32:07;;;;;;;21.73;5.08;;;;;;;23.00;61.92;98503.05;1458021;89;21530;-79
2023/10/20 11:34:35;;;;;;;20.25;4.60;;;;;;;23.36;61.23;98502.33;1458024;89;21391;-81
2023/10/20 11:37:04;;;;;;;22.27;5.15;;;;;;;23.69;60.52;98497.30;1461548;89;22493;-78
2023/10/20 11:39:36;;;;;;;19.53;5.00;;;;;;;23.83;59.94;98507.21;1458380;89;21369;-78
2023/10/20 11:42:00;;;;;;;16.42;5.22;;;;;;;23.92;59.15;98502.56;1451167;89;21612;-79
2023/10/20 11:44:26;;;;;;;17.27;4.62;;;;;;;23.96;59.46;98496.84;1459818;89;21414;-80